Time;durP1;ratioP1;P1;durP2;ratioP2;P2;SDS_P1;SDS_P2;PMS_P1;PMS_P2;Temp;Humidity;BMP_temperature;BMP_pressure;BME280_temperature;BME280_humidity;BME280_pressure;Samples;Min_cycle;Max_cycle;Signal;HPM_P1;HPM_P2
2022/07/26 00:01:54;;;;;;;7.47;5.17;;;;;;;16.65;61.51;96709.38;1830886;78;25755;-75
2022/07/26 00:04:20;;;;;;;6.35;5.53;;;;;;;16.63;61.61;96703.38;1830858;78;26196;-76
2022/07/26 00:06:47;;;;;;;7.83;5.65;;;;;;;16.53;61.68;96709.03;1830629;78;25685;-75
2022/07/26 00:09:14;;;;;;;7.95;5.78;;;;;;;16.48;61.85;96704.09;1830858;78;26860;-75
2022/07/26 00:11:40;;;;;;;6.70;5.67;;;;;;;16.49;61.97;96712.00;1831214;78;25602;-75
2022/07/26 00:14:08;;;;;;;6.72;5.10;;;;;;;16.46;62.00;96702.99;1830918;78;25712;-75
2022/07/26 00:16:37;;;;;;;6.25;5.17;;;;;;;16.46;62.07;96710.34;1830742;78;26154;-76
2022/07/26 00:19:06;;;;;;;7.35;5.00;;;;;;;16.45;62.08;96707.34;1831255;78;25601;-75
2022/07/26 00:21:35;;;;;;;7.60;4.95;;;;;;;16.40;62.13;96708.16;1830753;78;27507;-75
2022/07/26 00:24:24;;;;;;;8.83;5.15;;;;;;;16.38;62.21;96705.41;1830771;78;25839;-75
2022/07/26 00:26:51;;;;;;;5.78;5.10;;;;;;;16.37;62.23;96706.49;1830528;78;25741;-75
2022/07/26 00:29:17;;;;;;;7.83;5.60;;;;;;;16.35;62.26;96699.95;1830600;78;26799;-75
2022/07/26 00:31:44;;;;;;;9.03;5.25;;;;;;;16.33;62.33;96696.66;1831033;78;25606;-75
2022/07/26 00:34:10;;;;;;;6.10;5.17;;;;;;;16.32;62.42;96701.00;1830748;78;27551;-75
2022/07/26 00:36:37;;;;;;;8.50;5.67;;;;;;;16.31;62.46;96695.28;1830750;78;25630;-74
2022/07/26 00:39:04;;;;;;;6.92;5.05;;;;;;;16.28;62.52;96687.66;1830823;78;25700;-75
2022/07/26 00:41:30;;;;;;;7.10;5.10;;;;;;;16.25;62.60;96682.20;1829424;78;26132;-75
2022/07/26 00:44:00;;;;;;;6.30;4.83;;;;;;;16.23;62.63;96693.07;1829480;78;25693;-75
2022/07/26 00:46:27;;;;;;;5.17;4.67;;;;;;;16.19;62.77;96687.32;1829309;78;27452;-75
2022/07/26 00:48:53;;;;;;;7.12;4.60;;;;;;;16.16;62.83;96685.97;1829300;78;25487;-75
2022/07/26 00:51:21;;;;;;;6.85;4.40;;;;;;;16.11;62.82;96685.93;1829267;78;25704;-75
2022/07/26 00:53:49;;;;;;;7.85;4.90;;;;;;;16.09;62.87;96687.27;1828998;78;26733;-75
2022/07/26 00:56:16;;;;;;;6.65;4.65;;;;;;;16.06;62.93;96687.25;1829300;78;25454;-75
2022/07/26 00:58:43;;;;;;;10.00;4.80;;;;;;;16.02;63.02;96682.08;1829436;78;27532;-75
2022/07/26 01:01:11;;;;;;;5.83;5.00;;;;;;;15.98;63.10;96683.67;1829391;78;25711;-75
2022/07/26 01:03:37;;;;;;;5.92;4.80;;;;;;;15.95;63.18;96681.47;1829385;78;25672;-75
2022/07/26 01:06:05;;;;;;;5.35;4.45;;;;;;;15.93;63.26;96685.56;1829148;78;26070;-75
2022/07/26 01:08:31;;;;;;;5.80;5.17;;;;;;;15.91;63.30;96689.91;1829408;78;25643;-75
2022/07/26 01:10:58;;;;;;;7.20;4.95;;;;;;;15.87;63.44;96680.61;1829503;78;28066;-75
2022/07/26 01:13:24;;;;;;;5.80;5.20;;;;;;;15.84;63.52;96671.60;1829262;78;25741;-74
2022/07/26 01:15:51;;;;;;;6.58;5.10;;;;;;;15.82;63.67;96680.02;1829287;78;25661;-75
2022/07/26 01:18:18;;;;;;;7.47;5.10;;;;;;;15.71;63.80;96681.58;1829269;78;26690;-75
2022/07/26 01:20:44;;;;;;;6.40;5.30;;;;;;;15.63;63.99;96677.99;1829478;78;25875;-75
2022/07/26 01:23:11;;;;;;;8.45;4.90;;;;;;;15.61;64.16;96671.98;1829379;78;27572;-75
2022/07/26 01:25:38;;;;;;;5.92;4.40;;;;;;;15.57;64.24;96674.97;1829267;78;25640;-75
2022/07/26 01:28:05;;;;;;;6.50;4.70;;;;;;;15.55;64.34;96665.70;1829145;78;25716;-74
2022/07/26 01:30:32;;;;;;;5.03;4.40;;;;;;;15.58;64.35;96673.89;1829309;78;26803;-76
2022/07/26 01:32:58;;;;;;;6.70;4.55;;;;;;;15.59;64.32;96667.34;1829258;78;25662;-75
2022/07/26 01:35:25;;;;;;;5.92;4.55;;;;;;;15.59;64.49;96671.42;1829280;78;28125;-76
2022/07/26 01:37:51;;;;;;;6.35;5.17;;;;;;;15.50;64.50;96671.88;1829377;78;25701;-75
2022/07/26 01:40:18;;;;;;;6.00;4.47;;;;;;;15.45;64.68;96671.05;1798328;78;25662;-75
2022/07/26 01:42:44;;;;;;;5.65;5.05;;;;;;;15.40;64.82;96662.29;1796668;79;26058;-75
2022/07/26 01:45:12;;;;;;;6.45;4.60;;;;;;;15.41;64.91;96656.31;1796615;79;25839;-75
2022/07/26 01:47:39;;;;;;;6.15;4.75;;;;;;;15.38;64.97;96657.64;1796568;79;28349;-76
2022/07/26 01:50:08;;;;;;;9.85;4.47;;;;;;;15.41;65.03;96659.86;1796449;79;25736;-75
2022/07/26 01:52:34;;;;;;;5.55;4.30;;;;;;;15.44;65.02;96660.70;1796716;79;25729;-75
2022/07/26 01:55:01;;;;;;;8.23;4.83;;;;;;;15.44;65.05;96651.18;1796586;79;25966;-75
2022/07/26 01:57:28;;;;;;;5.37;4.62;;;;;;;15.42;65.16;96647.90;1796796;79;25705;-75
2022/07/26 01:59:54;;;;;;;5.12;4.62;;;;;;;15.38;65.20;96650.84;1796564;79;27508;-75
2022/07/26 02:02:21;;;;;;;6.28;4.83;;;;;;;15.35;65.26;96647.28;1796569;79;25413;-75
2022/07/26 02:04:57;;;;;;;8.25;4.67;;;;;;;15.34;65.34;96642.09;1796362;79;25627;-75
2022/07/26 02:07:34;;;;;;;7.72;4.92;;;;;;;15.30;65.42;96636.38;1796279;79;26077;-75
2022/07/26 02:10:00;;;;;;;7.87;4.85;;;;;;;15.27;65.67;96640.97;1759198;81;25742;-75
2022/07/26 02:12:27;;;;;;;7.33;5.03;;;;;;;15.21;65.67;96635.23;1764211;81;27511;-75
2022/07/26 02:14:53;;;;;;;9.80;5.28;;;;;;;15.22;65.75;96627.86;1764154;81;25640;-75
2022/07/26 02:17:20;;;;;;;8.05;5.08;;;;;;;15.22;65.79;96633.30;1764259;81;25702;-74
2022/07/26 02:19:47;;;;;;;6.72;4.75;;;;;;;15.23;65.86;96627.61;1764388;81;26675;-75
2022/07/26 02:22:14;;;;;;;6.65;5.90;;;;;;;15.20;65.86;96623.25;1763967;81;26037;-75
2022/07/26 02:24:41;;;;;;;6.55;4.95;;;;;;;15.20;65.91;96624.61;1764094;81;26745;-75
2022/07/26 02:27:08;;;;;;;5.35;4.85;;;;;;;15.21;65.95;96627.07;1764003;80;25821;-75
2022/07/26 02:29:35;;;;;;;6.17;4.53;;;;;;;15.22;66.00;96619.17;1764319;81;25790;-75
2022/07/26 02:32:01;;;;;;;8.43;4.87;;;;;;;15.23;66.00;96619.45;1764225;81;26735;-76
2022/07/26 02:34:28;;;;;;;5.92;4.78;;;;;;;15.23;66.11;96627.61;1764369;81;25832;-75
2022/07/26 02:36:54;;;;;;;7.05;5.10;;;;;;;15.18;66.13;96616.70;1764242;81;28129;-74
2022/07/26 02:39:26;;;;;;;9.38;5.10;;;;;;;15.14;66.20;96614.22;1764357;81;25676;-75
2022/07/26 02:41:49;;;;;;;6.30;5.33;;;;;;;15.16;66.32;96615.32;1757896;80;25434;-76
2022/07/26 02:44:16;;;;;;;6.30;5.00;;;;;;;15.11;66.36;96618.80;1761391;81;26161;-75
2022/07/26 02:46:43;;;;;;;5.75;4.85;;;;;;;15.06;66.44;96611.98;1761440;81;25811;-76
2022/07/26 02:49:09;;;;;;;6.67;5.47;;;;;;;15.06;66.48;96611.98;1761017;81;27408;-75
2022/07/26 02:51:36;;;;;;;9.33;8.00;;;;;;;15.07;66.58;96612.27;1761386;81;25410;-75
2022/07/26 02:54:03;;;;;;;9.15;5.70;;;;;;;15.04;66.65;96614.13;1761311;81;26386;-75
2022/07/26 02:56:29;;;;;;;7.53;5.20;;;;;;;15.01;66.74;96611.92;1761380;81;26041;-74
2022/07/26 02:58:56;;;;;;;8.10;5.83;;;;;;;14.98;66.78;96609.72;1761174;81;26436;-75
2022/07/26 03:01:23;;;;;;;11.68;5.87;;;;;;;15.00;66.86;96610.28;1761424;81;28239;-75
2022/07/26 03:03:50;;;;;;;6.62;5.15;;;;;;;14.97;66.94;96607.54;1761209;81;25669;-75
2022/07/26 03:06:17;;;;;;;6.03;5.40;;;;;;;14.95;67.06;96598.03;1761096;81;25245;-75
2022/07/26 03:08:44;;;;;;;9.90;6.12;;;;;;;14.89;67.22;96597.69;1761278;81;25938;-75
2022/07/26 03:11:10;;;;;;;8.95;6.80;;;;;;;14.84;67.27;96590.33;1761562;81;25724;-74
2022/07/26 03:13:37;;;;;;;10.35;6.08;;;;;;;14.83;67.34;96591.94;1761331;81;27336;-74
2022/07/26 03:16:04;;;;;;;10.75;6.45;;;;;;;14.84;67.54;96586.80;1761275;81;25670;-75
2022/07/26 03:18:30;;;;;;;8.10;5.62;;;;;;;14.85;67.52;96587.08;1761562;81;25699;-74
2022/07/26 03:20:57;;;;;;;7.80;5.58;;;;;;;14.86;67.61;96584.08;1761394;81;26002;-75
2022/07/26 03:23:23;;;;;;;10.18;6.20;;;;;;;14.86;67.69;96584.61;1761513;81;25474;-75
2022/07/26 03:25:50;;;;;;;9.13;6.33;;;;;;;14.80;67.91;96574.79;1761458;81;27416;-75
2022/07/26 03:28:16;;;;;;;8.55;6.00;;;;;;;14.76;68.01;96576.66;1761419;81;25866;-75
2022/07/26 03:30:43;;;;;;;10.95;6.40;;;;;;;14.77;68.03;96577.48;1761368;81;25683;-75
2022/07/26 03:33:09;;;;;;;9.48;6.55;;;;;;;14.82;68.15;96575.36;1761125;81;26050;-75
2022/07/26 03:35:36;;;;;;;11.12;6.83;;;;;;;14.80;68.47;96569.36;1761414;81;25429;-75
2022/07/26 03:38:03;;;;;;;9.80;6.65;;;;;;;14.81;68.34;96569.64;1761438;81;27342;-76
2022/07/26 03:40:29;;;;;;;9.70;6.97;;;;;;;14.85;68.60;96568.06;1761265;81;25758;-75
2022/07/26 03:42:56;;;;;;;9.00;6.80;;;;;;;14.86;68.50;96567.77;1763990;80;25737;-75
2022/07/26 03:45:23;;;;;;;11.97;7.03;;;;;;;14.93;68.51;96560.78;1764284;81;44209;-75
2022/07/26 03:47:50;;;;;;;11.15;7.30;;;;;;;14.98;68.44;96559.45;1764016;81;25628;-75
2022/07/26 03:50:16;;;;;;;13.48;8.10;;;;;;;15.05;68.45;96564.14;1764464;81;27424;-75
2022/07/26 03:52:43;;;;;;;12.07;7.45;;;;;;;15.07;68.52;96555.19;1764359;81;25753;-74
2022/07/26 03:57:54;;;;;;;12.75;7.90;;;;;;;15.10;68.60;96556.01;1764238;81;26653;-75
2022/07/26 04:00:21;;;;;;;13.18;9.13;;;;;;;15.17;68.67;96557.98;1764589;81;25665;-75
2022/07/26 04:02:47;;;;;;;12.70;8.33;;;;;;;15.21;68.76;96555.03;1764376;81;28002;-75
2022/07/26 04:05:14;;;;;;;10.43;8.33;;;;;;;15.27;68.76;96552.61;1764287;81;25910;-74
2022/07/26 04:07:45;;;;;;;11.40;8.78;;;;;;;15.32;68.80;96554.55;1764094;81;25714;-74
2022/07/26 04:10:14;;;;;;;13.13;8.63;;;;;;;15.37;68.84;96552.67;1764356;81;25991;-74
2022/07/26 04:12:41;;;;;;;15.88;8.70;;;;;;;15.44;68.75;96548.37;1764507;81;25706;-75
2022/07/26 04:15:09;;;;;;;12.55;8.10;;;;;;;15.49;68.91;96536.97;1764364;81;27336;-75
2022/07/26 04:17:39;;;;;;;14.23;7.58;;;;;;;15.55;68.89;96531.61;1764245;81;25216;-74
2022/07/26 04:20:08;;;;;;;11.12;7.58;;;;;;;15.59;69.12;96532.70;1721111;83;25785;-75
2022/07/26 04:22:36;;;;;;;11.78;7.53;;;;;;;15.65;68.94;96532.47;1721189;83;26060;-75
2022/07/26 04:25:04;;;;;;;18.82;9.03;;;;;;;15.72;68.83;96533.04;1749494;82;26059;-75
2022/07/26 04:27:31;;;;;;;18.52;8.93;;;;;;;15.79;69.01;96528.73;1749455;82;27517;-75
2022/07/26 04:29:58;;;;;;;9.78;8.13;;;;;;;15.88;69.00;96532.58;1749466;82;25787;-75
2022/07/26 04:32:25;;;;;;;13.55;8.30;;;;;;;15.95;69.38;96525.52;1749514;82;25879;-75
2022/07/26 04:34:51;;;;;;;10.65;7.80;;;;;;;16.00;69.34;96522.28;1749442;82;26820;-75
2022/07/26 04:37:18;;;;;;;12.88;7.50;;;;;;;16.06;69.13;96525.28;1749644;82;25809;-75
2022/07/26 04:39:44;;;;;;;12.40;8.45;;;;;;;16.12;69.29;96529.67;1749542;82;28234;-75
2022/07/26 04:42:11;;;;;;;12.23;7.80;;;;;;;16.18;69.06;96522.35;1750933;81;25888;-74
2022/07/26 04:44:38;;;;;;;15.95;7.90;;;;;;;16.26;68.95;96521.00;1752429;81;25835;-75
2022/07/26 04:47:05;;;;;;;9.65;7.58;;;;;;;16.31;68.94;96520.98;1752383;81;26160;-75
2022/07/26 04:49:31;;;;;;;15.05;7.90;;;;;;;16.38;68.82;96529.20;1752544;81;25722;-75
2022/07/26 04:51:58;;;;;;;9.53;7.40;;;;;;;16.45;68.72;96533.01;1752117;81;27436;-75
2022/07/26 04:54:25;;;;;;;18.20;9.48;;;;;;;16.52;68.62;96533.58;1752407;81;25785;-75
2022/07/26 04:56:52;;;;;;;13.03;9.90;;;;;;;16.59;68.64;96536.85;1752444;81;25993;-75
2022/07/26 04:59:18;;;;;;;18.17;9.68;;;;;;;16.66;68.71;96529.28;1752436;81;26039;-74
2022/07/26 05:01:45;;;;;;;15.30;9.13;;;;;;;16.74;68.77;96527.91;1752373;81;25806;-75
2022/07/26 05:04:12;;;;;;;23.35;9.50;;;;;;;16.81;68.69;96531.99;1752439;81;28017;-75
2022/07/26 05:06:38;;;;;;;16.23;10.30;;;;;;;16.91;68.77;96526.54;1752155;81;25326;-75
2022/07/26 05:09:05;;;;;;;14.20;9.60;;;;;;;17.01;68.75;96529.83;1752555;81;25695;-75
2022/07/26 05:11:31;;;;;;;14.85;9.40;;;;;;;17.12;68.82;96524.64;1752345;81;25976;-75
2022/07/26 05:13:58;;;;;;;16.12;9.20;;;;;;;17.25;68.99;96530.09;1752577;81;25639;-75
2022/07/26 05:16:25;;;;;;;14.73;9.40;;;;;;;17.38;69.25;96519.98;1752261;81;27468;-75
2022/07/26 05:18:51;;;;;;;15.32;9.18;;;;;;;17.50;69.11;96515.03;1764408;81;25684;-75
2022/07/26 05:21:18;;;;;;;16.50;9.38;;;;;;;17.64;69.04;96525.65;1821448;78;25720;-76
2022/07/26 05:23:44;;;;;;;15.93;8.90;;;;;;;17.79;68.90;96529.43;1822470;78;26041;-75
2022/07/26 05:26:11;;;;;;;13.38;7.62;;;;;;;17.89;68.86;96527.47;1836919;78;25713;-75
2022/07/26 05:28:39;;;;;;;9.95;7.65;;;;;;;18.03;68.58;96526.33;1836789;78;28008;-75
2022/07/26 05:31:05;;;;;;;11.03;7.20;;;;;;;18.15;68.26;96525.45;1836799;78;26050;-75
2022/07/26 05:33:32;;;;;;;11.22;7.35;;;;;;;18.27;67.75;96531.95;1836870;78;25738;-76
2022/07/26 05:35:59;;;;;;;12.20;8.10;;;;;;;18.40;67.66;96526.42;1836919;78;26008;-76
2022/07/26 05:38:26;;;;;;;14.83;8.03;;;;;;;18.53;67.57;96526.61;1836949;78;25676;-76
2022/07/26 05:40:52;;;;;;;10.58;7.47;;;;;;;18.65;67.10;96527.66;1836804;78;27235;-76
2022/07/26 05:43:19;;;;;;;13.03;7.85;;;;;;;18.76;66.69;96516.91;1840910;77;25214;-75
2022/07/26 05:45:46;;;;;;;7.50;6.70;;;;;;;18.89;66.53;96512.72;1841808;77;25229;-76
2022/07/26 05:48:12;;;;;;;9.85;7.42;;;;;;;19.01;66.47;96524.92;1841816;77;25969;-76
2022/07/26 05:50:39;;;;;;;9.68;7.65;;;;;;;19.13;66.01;96520.44;1841932;77;25458;-76
2022/07/26 05:53:05;;;;;;;9.93;6.42;;;;;;;19.27;65.91;96528.80;1841797;77;27383;-76
2022/07/26 05:55:32;;;;;;;10.18;6.42;;;;;;;19.40;65.69;96526.77;1841726;77;25206;-76
2022/07/26 05:57:59;;;;;;;10.13;7.33;;;;;;;19.53;65.32;96534.33;1841455;77;25724;-76
2022/07/26 06:00:25;;;;;;;10.65;6.50;;;;;;;19.67;65.23;96521.59;1841875;77;25478;-76
2022/07/26 06:02:52;;;;;;;9.28;6.35;;;;;;;19.81;64.76;96516.77;1841860;77;25659;-76
2022/07/26 06:05:18;;;;;;;9.03;5.67;;;;;;;19.92;64.66;96514.20;1841839;77;28061;-76
2022/07/26 06:07:45;;;;;;;7.17;6.00;;;;;;;20.05;64.55;96517.56;1841456;77;25697;-76
2022/07/26 06:10:12;;;;;;;8.23;5.58;;;;;;;20.18;64.50;96523.70;1841757;77;25672;-76
2022/07/26 06:12:38;;;;;;;8.55;5.70;;;;;;;20.29;64.33;96524.38;1841768;77;25637;-76
2022/07/26 06:15:06;;;;;;;7.25;6.37;;;;;;;20.39;64.17;96526.48;1841789;77;25874;-76
2022/07/26 06:17:32;;;;;;;8.73;6.35;;;;;;;20.51;63.49;96521.94;1841930;77;27268;-77
2022/07/26 06:19:59;;;;;;;8.18;6.28;;;;;;;20.61;63.28;96534.67;1841677;77;25730;-77
2022/07/26 06:22:26;;;;;;;7.33;6.62;;;;;;;20.69;62.82;96529.88;1841759;77;25725;-76
2022/07/26 06:24:52;;;;;;;7.70;6.47;;;;;;;20.77;62.70;96525.13;1841913;77;26188;-76
2022/07/26 06:27:19;;;;;;;7.87;6.10;;;;;;;20.84;62.69;96521.43;1841806;77;25804;-76
2022/07/26 06:29:47;;;;;;;7.37;6.60;;;;;;;20.91;62.44;96528.71;1841822;77;28047;-76
2022/07/26 06:32:13;;;;;;;10.50;7.40;;;;;;;20.99;62.05;96522.57;1841794;77;25793;-77
2022/07/26 06:34:40;;;;;;;7.30;6.60;;;;;;;21.10;61.54;96521.84;1841784;77;25210;-77
2022/07/26 06:37:07;;;;;;;8.55;6.65;;;;;;;21.21;60.66;96523.33;1841853;77;25956;-76
2022/07/26 06:39:33;;;;;;;8.55;6.55;;;;;;;21.32;59.79;96528.90;1841813;77;25196;-77
2022/07/26 06:42:00;;;;;;;9.15;6.92;;;;;;;21.43;59.69;96525.41;1842383;77;28078;-75
2022/07/26 06:44:26;;;;;;;10.38;6.33;;;;;;;21.53;59.06;96527.97;1845069;77;25155;-76
2022/07/26 06:46:53;;;;;;;8.93;6.17;;;;;;;21.63;59.25;96526.41;1844929;77;25738;-77
2022/07/26 06:49:19;;;;;;;11.63;6.20;;;;;;;21.74;58.66;96523.72;1845077;77;26734;-76
2022/07/26 06:51:46;;;;;;;8.03;6.40;;;;;;;21.84;58.37;96534.54;1844987;77;25720;-76
2022/07/26 06:54:12;;;;;;;9.15;6.60;;;;;;;21.95;58.13;96531.59;1845052;77;27526;-75
2022/07/26 06:56:39;;;;;;;12.80;6.35;;;;;;;22.05;58.25;96549.27;1844985;77;25685;-76
2022/07/26 06:59:06;;;;;;;7.10;6.17;;;;;;;22.16;57.91;96541.08;1844888;77;25457;-76
2022/07/26 07:01:32;;;;;;;10.35;6.17;;;;;;;22.16;57.76;96520.45;1844999;77;26113;-77
2022/07/26 07:03:59;;;;;;;9.73;6.28;;;;;;;22.32;57.88;96534.14;1845039;77;25890;-76
2022/07/26 07:06:25;;;;;;;8.95;6.53;;;;;;;22.50;57.67;96544.19;1844949;77;28074;-76
2022/07/26 07:08:52;;;;;;;9.20;6.25;;;;;;;22.63;57.37;96534.28;1844588;77;25722;-77
2022/07/26 07:11:19;;;;;;;6.95;6.35;;;;;;;22.77;57.10;96535.66;1845111;77;25649;-76
2022/07/26 07:13:45;;;;;;;9.63;6.70;;;;;;;22.93;56.67;96539.69;1845168;77;26124;-76
2022/07/26 07:16:12;;;;;;;10.10;6.55;;;;;;;23.05;56.40;96546.83;1844953;77;25738;-76
2022/07/26 07:18:38;;;;;;;9.75;6.75;;;;;;;23.19;56.19;96547.56;1845233;77;28018;-76
2022/07/26 07:21:05;;;;;;;6.90;6.30;;;;;;;23.32;56.23;96543.92;1844919;77;25857;-76
2022/07/26 07:23:32;;;;;;;8.28;6.35;;;;;;;23.49;55.92;96545.99;1844986;77;25171;-76
2022/07/26 07:25:59;;;;;;;16.00;6.85;;;;;;;23.65;55.70;96556.09;1844582;76;25999;-76
2022/07/26 07:28:26;;;;;;;8.15;6.95;;;;;;;23.81;55.27;96550.41;1844814;77;25760;-77
2022/07/26 07:30:52;;;;;;;7.58;6.78;;;;;;;24.06;55.19;96546.14;1845034;77;28294;-77
2022/07/26 07:33:19;;;;;;;7.05;6.37;;;;;;;24.21;54.54;96553.98;1844871;77;25610;-76
2022/07/26 07:35:46;;;;;;;8.30;6.67;;;;;;;24.34;54.20;96546.19;1845070;77;26668;-77
2022/07/26 07:38:12;;;;;;;7.55;6.53;;;;;;;24.49;53.77;96549.64;1844955;77;25972;-77
2022/07/26 07:40:39;;;;;;;11.85;6.72;;;;;;;24.69;53.28;96546.27;1845149;77;25764;-77
2022/07/26 07:43:05;;;;;;;8.20;6.87;;;;;;;24.89;53.33;96540.66;1845106;77;27361;-77
2022/07/26 07:45:32;;;;;;;12.40;6.72;;;;;;;25.12;53.52;96547.68;1845383;77;25689;-77
2022/07/26 07:47:59;;;;;;;9.48;6.70;;;;;;;25.28;53.17;96548.01;1845305;77;25627;-77
2022/07/26 07:50:25;;;;;;;8.40;7.53;;;;;;;25.45;53.19;96549.38;1845277;77;26964;-78
2022/07/26 07:52:52;;;;;;;13.38;8.30;;;;;;;25.60;52.44;96556.34;1845346;77;25708;-77
2022/07/26 07:55:18;;;;;;;10.08;7.03;;;;;;;25.68;52.13;96561.06;1845438;77;27403;-78
2022/07/26 07:57:45;;;;;;;9.28;8.25;;;;;;;25.71;51.92;96559.03;1845361;77;25826;-76
2022/07/26 08:00:14;;;;;;;9.43;7.92;;;;;;;25.74;51.35;96562.50;1845117;77;25668;-77
2022/07/26 08:02:41;;;;;;;13.60;7.90;;;;;;;25.76;51.41;96570.71;1845474;77;26887;-77
2022/07/26 08:05:08;;;;;;;11.68;8.00;;;;;;;25.82;51.02;96571.36;1845563;77;25850;-78
2022/07/26 08:07:35;;;;;;;9.93;7.78;;;;;;;25.83;50.87;96575.75;1845328;77;27422;-77
2022/07/26 08:10:02;;;;;;;10.63;8.63;;;;;;;25.88;50.73;96575.55;1845117;77;25800;-76
2022/07/26 08:12:29;;;;;;;11.28;8.33;;;;;;;25.93;50.71;96592.55;1845433;77;25752;-78
2022/07/26 08:14:55;;;;;;;14.07;8.38;;;;;;;25.96;50.74;96596.86;1845154;77;26049;-79
2022/07/26 08:17:22;;;;;;;9.20;8.13;;;;;;;25.99;50.48;96610.00;1845029;77;26292;-78
2022/07/26 08:19:48;;;;;;;12.03;8.25;;;;;;;25.98;50.29;96613.09;1845422;77;28099;-79
2022/07/26 08:22:15;;;;;;;9.98;8.93;;;;;;;25.93;49.97;96616.05;1845277;77;25666;-79
2022/07/26 08:24:44;;;;;;;12.90;8.70;;;;;;;25.86;49.76;96616.54;1845646;77;25720;-77
2022/07/26 08:27:10;;;;;;;11.10;8.68;;;;;;;25.79;49.75;96616.23;1845415;77;25931;-78
2022/07/26 08:29:36;;;;;;;9.78;8.88;;;;;;;25.71;50.04;96622.03;1845573;77;25689;-79
2022/07/26 08:32:03;;;;;;;10.98;9.20;;;;;;;25.69;50.09;96630.41;1845549;77;27405;-79
2022/07/26 08:34:30;;;;;;;9.75;8.75;;;;;;;25.69;50.34;96633.17;1845659;77;25405;-79
2022/07/26 08:36:57;;;;;;;11.28;9.33;;;;;;;25.70;50.29;96635.61;1845413;77;25728;-78
2022/07/26 08:39:23;;;;;;;10.23;9.15;;;;;;;25.68;50.12;96639.27;1845532;77;26028;-79
2022/07/26 08:41:50;;;;;;;10.20;9.15;;;;;;;25.63;50.25;96644.13;1845579;77;25262;-78
2022/07/26 08:44:18;;;;;;;14.90;9.45;;;;;;;25.60;50.28;96646.16;1841792;77;27347;-79
2022/07/26 08:46:44;;;;;;;11.40;9.93;;;;;;;25.56;50.38;96650.13;1841418;77;25891;-78
2022/07/26 08:49:13;;;;;;;14.98;10.45;;;;;;;25.52;50.53;96651.09;1841975;77;25632;-79
2022/07/26 08:51:43;;;;;;;14.43;10.35;;;;;;;25.45;50.59;96652.41;1842150;77;26177;-80
2022/07/26 08:54:13;;;;;;;13.58;10.00;;;;;;;25.39;50.84;96663.37;1773622;80;25920;-79
2022/07/26 08:56:51;;;;;;;14.87;10.43;;;;;;;25.33;51.43;96663.30;1773774;80;27367;-80
2022/07/26 08:59:19;;;;;;;14.85;11.05;;;;;;;25.26;51.72;96671.23;1771497;80;25349;-78
2022/07/26 09:01:55;;;;;;;12.85;10.78;;;;;;;25.21;52.25;96677.50;1748289;80;25734;-79
2022/07/26 09:04:36;;;;;;;15.85;12.05;;;;;;;25.18;52.40;96684.48;1748113;82;25982;-78
2022/07/26 09:07:07;;;;;;;15.58;11.48;;;;;;;25.08;53.25;96687.55;1748193;82;25491;-77
2022/07/26 09:09:37;;;;;;;13.00;11.80;;;;;;;24.92;53.69;96693.23;1747875;82;28449;-77
2022/07/26 09:12:19;;;;;;;13.83;12.23;;;;;;;24.77;54.35;96699.44;1747989;82;25867;-77
2022/07/26 09:14:46;;;;;;;14.43;12.45;;;;;;;24.65;54.79;96703.37;1748279;82;25305;-77
2022/07/26 09:17:15;;;;;;;15.03;11.90;;;;;;;24.65;55.13;96710.83;1747878;82;27048;-77
2022/07/26 09:19:43;;;;;;;14.28;12.65;;;;;;;24.64;55.10;96711.39;1748083;82;25796;-78
2022/07/26 09:22:15;;;;;;;19.57;13.45;;;;;;;24.59;55.19;96710.73;1748190;82;28177;-77
2022/07/26 09:24:45;;;;;;;16.27;12.95;;;;;;;24.57;55.46;96720.70;1727016;83;25798;-77
2022/07/26 09:27:15;;;;;;;14.53;13.03;;;;;;;24.50;55.97;96718.98;1724684;83;25833;-77
2022/07/26 09:29:52;;;;;;;16.50;14.30;;;;;;;24.41;55.89;96724.44;1727186;83;26003;-78
2022/07/26 09:32:25;;;;;;;16.30;14.60;;;;;;;24.38;56.09;96727.03;1722950;83;25932;-77
2022/07/26 09:34:55;;;;;;;15.65;13.65;;;;;;;24.35;56.58;96720.77;1727153;83;33011;-77
2022/07/26 09:37:42;;;;;;;16.35;14.40;;;;;;;24.27;56.41;96728.44;1695662;84;25738;-78
2022/07/26 09:40:13;;;;;;;21.02;15.32;;;;;;;24.20;56.60;96734.34;1697959;84;25877;-76
2022/07/26 09:43:03;;;;;;;16.47;14.73;;;;;;;24.09;57.60;96734.92;1640933;87;26768;-77
2022/07/26 09:45:33;;;;;;;16.57;14.87;;;;;;;23.94;57.90;96736.11;1595208;89;25477;-79
2022/07/26 09:48:00;;;;;;;17.70;14.93;;;;;;;23.79;57.32;96748.31;1642845;87;27450;-76
2022/07/26 09:50:30;;;;;;;16.30;14.73;;;;;;;23.79;57.64;96751.06;1641020;87;25747;-78
2022/07/26 09:53:07;;;;;;;17.50;15.72;;;;;;;23.75;57.58;96749.26;1576080;91;25784;-78
2022/07/26 09:55:38;;;;;;;16.52;14.95;;;;;;;23.76;57.62;96753.65;1554448;91;26333;-79
2022/07/26 09:58:05;;;;;;;18.07;16.17;;;;;;;23.74;57.46;96749.00;1530455;93;25746;-77
2022/07/26 10:00:33;;;;;;;17.02;15.30;;;;;;;23.63;57.97;96747.05;1530412;93;27528;-78
2022/07/26 10:03:00;;;;;;;18.92;16.60;;;;;;;23.58;58.23;96747.16;1530249;93;25828;-77
2022/07/26 10:05:26;;;;;;;17.67;15.72;;;;;;;23.59;58.17;96746.85;1530375;93;25871;-82
2022/07/26 10:07:54;;;;;;;19.73;17.05;;;;;;;23.59;58.24;96753.73;1530245;93;25991;-79
2022/07/26 10:10:26;;;;;;;24.80;17.20;;;;;;;23.60;58.40;96759.50;1530264;93;25839;-78
2022/07/26 10:12:54;;;;;;;18.62;16.75;;;;;;;23.54;58.27;96755.81;1539429;91;28233;-76
2022/07/26 10:15:40;;;;;;;18.80;16.45;;;;;;;23.47;58.64;96759.50;1536381;93;25907;-78
2022/07/26 10:18:10;;;;;;;19.60;16.82;;;;;;;23.39;58.56;96758.31;1508970;95;25847;-82
2022/07/26 10:20:47;;;;;;;17.57;15.68;;;;;;;23.30;59.26;96765.11;1477347;94;26017;-77
2022/07/26 10:23:38;;;;;;;18.40;16.32;;;;;;;23.19;59.12;96771.11;1492883;96;26843;-79
2022/07/26 10:26:10;;;;;;;19.85;17.50;;;;;;;23.12;59.35;96775.67;1448643;99;27425;-77
2022/07/26 10:28:39;;;;;;;19.00;17.03;;;;;;;23.05;59.69;96783.53;1491236;95;25883;-80
2022/07/26 10:31:28;;;;;;;19.42;17.40;;;;;;;22.99;59.58;96787.50;1491040;95;25863;-77
2022/07/26 10:33:56;;;;;;;18.90;16.82;;;;;;;22.99;59.78;96795.75;1491156;95;26030;-77
2022/07/26 10:36:33;;;;;;;18.98;17.07;;;;;;;22.97;59.89;96791.11;1486160;95;25823;-78
2022/07/26 10:39:13;;;;;;;20.15;18.00;;;;;;;22.99;60.22;96791.63;1485155;95;27477;-78
2022/07/26 10:41:47;;;;;;;20.82;18.62;;;;;;;23.01;60.10;96787.20;1496433;95;25818;-78
2022/07/26 10:44:19;;;;;;;18.40;16.57;;;;;;;23.00;60.56;96800.14;1503828;94;25972;-78
2022/07/26 10:47:01;;;;;;;19.50;17.50;;;;;;;22.87;60.52;96805.08;1503016;95;26037;-78
2022/07/26 10:49:34;;;;;;;23.20;18.45;;;;;;;22.82;60.72;96811.48;1509813;95;25848;-78
2022/07/26 10:52:12;;;;;;;20.10;18.00;;;;;;;22.80;60.79;96809.62;1509668;95;28139;-80
2022/07/26 10:55:02;;;;;;;20.15;18.15;;;;;;;22.77;60.86;96821.78;1502597;95;26222;-77
2022/07/26 10:57:33;;;;;;;20.95;18.85;;;;;;;22.75;60.84;96822.61;1558667;91;25868;-78
2022/07/26 11:00:01;;;;;;;20.63;18.50;;;;;;;22.66;60.89;96828.00;1561817;91;26219;-78
2022/07/26 11:02:31;;;;;;;20.55;18.45;;;;;;;22.55;61.21;96828.74;1565380;90;25605;-77
2022/07/26 11:05:15;;;;;;;21.90;19.55;;;;;;;22.41;61.47;96834.76;1591834;90;27363;-80
2022/07/26 11:08:09;;;;;;;21.82;19.50;;;;;;;22.32;61.54;96835.20;1591715;90;25834;-78
2022/07/26 11:10:43;;;;;;;21.60;19.35;;;;;;;22.20;61.78;96821.92;1591569;90;25815;-77
2022/07/26 11:13:16;;;;;;;22.52;19.95;;;;;;;22.13;62.52;96838.52;1591810;90;26004;-82
2022/07/26 11:15:53;;;;;;;22.37;20.23;;;;;;;21.99;63.83;96851.37;1591905;90;26874;-79
2022/07/26 11:18:26;;;;;;;24.23;21.73;;;;;;;21.99;63.83;96851.37;1599836;89;27513;-79
2022/07/26 11:20:54;;;;;;;;;;;;;;;21.89;63.17;96850.38;1575247;91;25546;-84
2022/07/26 11:23:31;;;;;;;23.73;21.10;;;;;;;21.58;64.27;96838.20;1606818;87;25769;-84
2022/07/26 11:26:13;;;;;;;24.07;21.30;;;;;;;21.58;64.27;96838.20;1640835;86;26192;-80
2022/07/26 11:28:48;;;;;;;;;;;;;;;21.66;64.21;96854.01;1653123;86;25955;-79
2022/07/26 11:31:16;;;;;;;23.30;21.02;;;;;;;21.60;65.69;96857.12;1655650;85;27369;-80
2022/07/26 11:33:47;;;;;;;23.32;20.90;;;;;;;21.34;65.13;96840.98;1678029;85;25798;-79
2022/07/26 11:36:14;;;;;;;23.40;21.02;;;;;;;21.44;65.20;96859.25;1678058;85;26771;-80